sensor_id;sensor_type;location;lat;lon;timestamp;P1;durP1;ratioP1;P2;durP2;ratioP2
5173;SDS011;2606;50.934;6.934;2023-03-04T00:01:42;84.37;;;28.10;;
5173;SDS011;2606;50.934;6.934;2023-03-04T00:04:08;69.70;;;24.77;;
5173;SDS011;2606;50.934;6.934;2023-03-04T00:06:33;74.33;;;23.40;;
5173;SDS011;2606;50.934;6.934;2023-03-04T00:08:59;69.27;;;24.50;;
5173;SDS011;2606;50.934;6.934;2023-03-04T00:11:25;65.47;;;24.13;;
5173;SDS011;2606;50.934;6.934;2023-03-04T00:13:51;60.33;;;23.63;;
5173;SDS011;2606;50.934;6.934;2023-03-04T00:16:16;60.50;;;22.50;;
5173;SDS011;2606;50.934;6.934;2023-03-04T00:18:42;67.40;;;21.63;;
5173;SDS011;2606;50.934;6.934;2023-03-04T00:21:08;65.47;;;22.93;;
5173;SDS011;2606;50.934;6.934;2023-03-04T00:23:33;71.27;;;24.60;;
5173;SDS011;2606;50.934;6.934;2023-03-04T00:25:59;63.13;;;23.20;;
5173;SDS011;2606;50.934;6.934;2023-03-04T00:28:24;60.17;;;23.20;;
5173;SDS011;2606;50.934;6.934;2023-03-04T00:30:50;59.47;;;22.10;;
5173;SDS011;2606;50.934;6.934;2023-03-04T00:33:16;48.30;;;18.50;;
5173;SDS011;2606;50.934;6.934;2023-03-04T00:35:41;55.30;;;20.30;;
5173;SDS011;2606;50.934;6.934;2023-03-04T00:38:07;59.40;;;20.63;;
5173;SDS011;2606;50.934;6.934;2023-03-04T00:40:33;49.13;;;19.07;;
5173;SDS011;2606;50.934;6.934;2023-03-04T00:42:58;59.87;;;18.40;;
5173;SDS011;2606;50.934;6.934;2023-03-04T00:45:24;44.57;;;17.80;;
5173;SDS011;2606;50.934;6.934;2023-03-04T00:47:49;52.80;;;19.40;;
5173;SDS011;2606;50.934;6.934;2023-03-04T00:50:15;52.90;;;17.60;;
5173;SDS011;2606;50.934;6.934;2023-03-04T00:52:41;53.30;;;18.60;;
5173;SDS011;2606;50.934;6.934;2023-03-04T00:55:07;45.90;;;16.90;;
5173;SDS011;2606;50.934;6.934;2023-03-04T00:57:33;50.77;;;17.87;;
5173;SDS011;2606;50.934;6.934;2023-03-04T00:59:58;44.00;;;15.07;;
5173;SDS011;2606;50.934;6.934;2023-03-04T01:02:24;39.03;;;14.43;;
5173;SDS011;2606;50.934;6.934;2023-03-04T01:04:50;38.37;;;14.80;;
5173;SDS011;2606;50.934;6.934;2023-03-04T01:07:15;40.37;;;13.57;;
5173;SDS011;2606;50.934;6.934;2023-03-04T01:09:41;40.67;;;14.00;;
5173;SDS011;2606;50.934;6.934;2023-03-04T01:12:07;34.17;;;14.10;;
5173;SDS011;2606;50.934;6.934;2023-03-04T01:14:32;34.17;;;12.70;;
5173;SDS011;2606;50.934;6.934;2023-03-04T01:16:58;33.23;;;11.30;;
5173;SDS011;2606;50.934;6.934;2023-03-04T01:19:23;34.07;;;11.57;;
5173;SDS011;2606;50.934;6.934;2023-03-04T01:21:49;25.97;;;10.57;;
5173;SDS011;2606;50.934;6.934;2023-03-04T01:24:14;31.20;;;12.10;;
5173;SDS011;2606;50.934;6.934;2023-03-04T01:26:40;27.00;;;11.00;;
5173;SDS011;2606;50.934;6.934;2023-03-04T01:29:06;24.43;;;10.60;;
5173;SDS011;2606;50.934;6.934;2023-03-04T01:31:31;23.03;;;9.43;;
5173;SDS011;2606;50.934;6.934;2023-03-04T01:33:57;23.63;;;9.87;;
5173;SDS011;2606;50.934;6.934;2023-03-04T01:36:22;26.40;;;10.03;;
5173;SDS011;2606;50.934;6.934;2023-03-04T01:38:48;24.67;;;9.40;;
5173;SDS011;2606;50.934;6.934;2023-03-04T01:41:13;29.47;;;9.83;;
5173;SDS011;2606;50.934;6.934;2023-03-04T01:43:42;24.27;;;9.57;;
5173;SDS011;2606;50.934;6.934;2023-03-04T01:46:12;23.80;;;8.83;;
5173;SDS011;2606;50.934;6.934;2023-03-04T01:48:41;21.77;;;8.63;;
5173;SDS011;2606;50.934;6.934;2023-03-04T01:51:11;19.80;;;8.00;;
5173;SDS011;2606;50.934;6.934;2023-03-04T01:53:42;24.80;;;9.27;;
5173;SDS011;2606;50.934;6.934;2023-03-04T01:59:18;18.70;;;7.33;;
5173;SDS011;2606;50.934;6.934;2023-03-04T02:01:55;14.40;;;6.67;;
5173;SDS011;2606;50.934;6.934;2023-03-04T02:04:25;22.73;;;7.30;;
5173;SDS011;2606;50.934;6.934;2023-03-04T02:06:56;17.83;;;7.17;;
5173;SDS011;2606;50.934;6.934;2023-03-04T02:09:23;11.97;;;5.77;;
5173;SDS011;2606;50.934;6.934;2023-03-04T02:11:49;18.40;;;6.17;;
5173;SDS011;2606;50.934;6.934;2023-03-04T02:14:16;10.17;;;5.53;;
5173;SDS011;2606;50.934;6.934;2023-03-04T02:16:43;15.20;;;6.07;;
5173;SDS011;2606;50.934;6.934;2023-03-04T02:19:12;13.83;;;6.50;;
5173;SDS011;2606;50.934;6.934;2023-03-04T02:22:05;17.33;;;7.60;;
5173;SDS011;2606;50.934;6.934;2023-03-04T02:24:35;17.27;;;6.60;;
5173;SDS011;2606;50.934;6.934;2023-03-04T02:27:07;14.03;;;6.03;;
5173;SDS011;2606;50.934;6.934;2023-03-04T02:29:32;17.20;;;6.10;;
5173;SDS011;2606;50.934;6.934;2023-03-04T02:31:58;19.87;;;5.70;;
5173;SDS011;2606;50.934;6.934;2023-03-04T02:34:26;11.27;;;4.90;;
5173;SDS011;2606;50.934;6.934;2023-03-04T02:36:54;12.77;;;5.70;;
5173;SDS011;2606;50.934;6.934;2023-03-04T02:41:46;13.03;;;5.63;;
5173;SDS011;2606;50.934;6.934;2023-03-04T02:44:17;21.17;;;6.03;;
5173;SDS011;2606;50.934;6.934;2023-03-04T02:46:44;12.50;;;5.53;;
5173;SDS011;2606;50.934;6.934;2023-03-04T02:49:10;10.90;;;5.03;;
5173;SDS011;2606;50.934;6.934;2023-03-04T02:51:36;11.70;;;5.13;;
5173;SDS011;2606;50.934;6.934;2023-03-04T02:54:02;16.53;;;5.10;;
5173;SDS011;2606;50.934;6.934;2023-03-04T02:56:28;11.43;;;4.67;;
5173;SDS011;2606;50.934;6.934;2023-03-04T02:58:53;12.80;;;5.50;;
5173;SDS011;2606;50.934;6.934;2023-03-04T03:01:19;20.50;;;4.83;;
5173;SDS011;2606;50.934;6.934;2023-03-04T03:03:44;10.43;;;5.47;;
5173;SDS011;2606;50.934;6.934;2023-03-04T03:06:10;10.00;;;4.60;;
5173;SDS011;2606;50.934;6.934;2023-03-04T03:08:36;18.30;;;5.37;;
5173;SDS011;2606;50.934;6.934;2023-03-04T03:11:01;11.97;;;4.10;;
5173;SDS011;2606;50.934;6.934;2023-03-04T03:13:27;15.27;;;4.83;;
5173;SDS011;2606;50.934;6.934;2023-03-04T03:15:53;16.67;;;4.70;;
5173;SDS011;2606;50.934;6.934;2023-03-04T03:18:18;21.20;;;4.37;;
5173;SDS011;2606;50.934;6.934;2023-03-04T03:20:44;15.17;;;5.20;;
5173;SDS011;2606;50.934;6.934;2023-03-04T03:23:10;14.10;;;4.93;;
5173;SDS011;2606;50.934;6.934;2023-03-04T03:25:35;16.20;;;4.23;;
5173;SDS011;2606;50.934;6.934;2023-03-04T03:28:01;10.13;;;3.70;;
5173;SDS011;2606;50.934;6.934;2023-03-04T03:30:27;12.00;;;4.20;;
5173;SDS011;2606;50.934;6.934;2023-03-04T03:32:52;21.53;;;4.70;;
5173;SDS011;2606;50.934;6.934;2023-03-04T03:35:18;13.23;;;4.90;;
5173;SDS011;2606;50.934;6.934;2023-03-04T03:37:43;19.03;;;4.60;;
5173;SDS011;2606;50.934;6.934;2023-03-04T03:40:09;8.07;;;4.33;;
5173;SDS011;2606;50.934;6.934;2023-03-04T03:42:35;19.50;;;3.80;;
5173;SDS011;2606;50.934;6.934;2023-03-04T03:45:01;15.03;;;5.03;;
5173;SDS011;2606;50.934;6.934;2023-03-04T03:47:27;12.00;;;3.57;;
5173;SDS011;2606;50.934;6.934;2023-03-04T03:49:52;13.67;;;4.83;;
5173;SDS011;2606;50.934;6.934;2023-03-04T03:52:18;12.00;;;3.73;;
5173;SDS011;2606;50.934;6.934;2023-03-04T03:54:43;18.90;;;4.90;;
5173;SDS011;2606;50.934;6.934;2023-03-04T03:57:09;13.97;;;4.23;;
5173;SDS011;2606;50.934;6.934;2023-03-04T03:59:34;19.23;;;6.70;;
5173;SDS011;2606;50.934;6.934;2023-03-04T04:02:00;23.63;;;7.27;;
5173;SDS011;2606;50.934;6.934;2023-03-04T04:04:25;17.07;;;5.50;;
5173;SDS011;2606;50.934;6.934;2023-03-04T04:06:51;11.40;;;4.80;;
5173;SDS011;2606;50.934;6.934;2023-03-04T04:09:17;14.13;;;4.40;;
5173;SDS011;2606;50.934;6.934;2023-03-04T04:11:42;15.87;;;4.27;;
5173;SDS011;2606;50.934;6.934;2023-03-04T04:14:10;10.97;;;4.20;;
5173;SDS011;2606;50.934;6.934;2023-03-04T04:16:37;16.43;;;3.70;;
5173;SDS011;2606;50.934;6.934;2023-03-04T04:19:02;17.83;;;3.60;;
5173;SDS011;2606;50.934;6.934;2023-03-04T04:21:28;18.37;;;3.77;;
5173;SDS011;2606;50.934;6.934;2023-03-04T04:23:53;15.53;;;4.50;;
5173;SDS011;2606;50.934;6.934;2023-03-04T04:26:19;12.67;;;4.10;;
5173;SDS011;2606;50.934;6.934;2023-03-04T04:28:44;16.10;;;3.97;;
5173;SDS011;2606;50.934;6.934;2023-03-04T04:31:10;11.50;;;3.93;;
5173;SDS011;2606;50.934;6.934;2023-03-04T04:33:35;13.30;;;3.73;;
5173;SDS011;2606;50.934;6.934;2023-03-04T04:36:02;10.20;;;3.40;;
5173;SDS011;2606;50.934;6.934;2023-03-04T04:38:29;9.83;;;3.33;;
5173;SDS011;2606;50.934;6.934;2023-03-04T04:40:56;12.10;;;3.67;;
5173;SDS011;2606;50.934;6.934;2023-03-04T04:43:22;12.83;;;3.73;;
5173;SDS011;2606;50.934;6.934;2023-03-04T04:45:48;12.83;;;3.43;;
5173;SDS011;2606;50.934;6.934;2023-03-04T04:48:14;21.70;;;4.00;;
5173;SDS011;2606;50.934;6.934;2023-03-04T04:50:39;7.90;;;3.63;;
5173;SDS011;2606;50.934;6.934;2023-03-04T04:53:05;29.40;;;4.87;;
5173;SDS011;2606;50.934;6.934;2023-03-04T04:55:30;4.97;;;3.00;;
5173;SDS011;2606;50.934;6.934;2023-03-04T04:57:58;13.33;;;4.47;;
5173;SDS011;2606;50.934;6.934;2023-03-04T05:00:23;10.57;;;4.50;;
5173;SDS011;2606;50.934;6.934;2023-03-04T05:02:49;20.33;;;6.90;;
5173;SDS011;2606;50.934;6.934;2023-03-04T05:05:14;18.30;;;6.60;;
5173;SDS011;2606;50.934;6.934;2023-03-04T05:07:40;18.93;;;7.13;;
5173;SDS011;2606;50.934;6.934;2023-03-04T05:10:06;29.13;;;9.73;;
5173;SDS011;2606;50.934;6.934;2023-03-04T05:12:32;32.43;;;9.67;;
5173;SDS011;2606;50.934;6.934;2023-03-04T05:14:57;19.57;;;8.47;;
5173;SDS011;2606;50.934;6.934;2023-03-04T05:17:23;22.40;;;8.33;;
5173;SDS011;2606;50.934;6.934;2023-03-04T05:19:48;26.10;;;8.60;;
5173;SDS011;2606;50.934;6.934;2023-03-04T05:22:14;19.70;;;7.70;;
5173;SDS011;2606;50.934;6.934;2023-03-04T05:24:39;23.70;;;7.93;;
5173;SDS011;2606;50.934;6.934;2023-03-04T05:27:05;21.20;;;7.50;;
5173;SDS011;2606;50.934;6.934;2023-03-04T05:29:30;16.27;;;7.47;;
5173;SDS011;2606;50.934;6.934;2023-03-04T05:31:56;28.83;;;7.70;;
5173;SDS011;2606;50.934;6.934;2023-03-04T05:34:22;17.70;;;7.10;;
5173;SDS011;2606;50.934;6.934;2023-03-04T05:36:47;24.70;;;7.33;;
5173;SDS011;2606;50.934;6.934;2023-03-04T05:39:13;21.27;;;6.77;;
5173;SDS011;2606;50.934;6.934;2023-03-04T05:41:38;25.63;;;6.37;;
5173;SDS011;2606;50.934;6.934;2023-03-04T05:44:04;16.93;;;5.10;;
5173;SDS011;2606;50.934;6.934;2023-03-04T05:46:29;25.70;;;6.33;;
5173;SDS011;2606;50.934;6.934;2023-03-04T05:48:55;33.10;;;6.17;;
5173;SDS011;2606;50.934;6.934;2023-03-04T05:51:21;9.10;;;4.33;;
5173;SDS011;2606;50.934;6.934;2023-03-04T05:53:47;17.20;;;4.50;;
5173;SDS011;2606;50.934;6.934;2023-03-04T05:56:14;17.03;;;4.40;;
5173;SDS011;2606;50.934;6.934;2023-03-04T05:58:42;15.47;;;4.30;;
5173;SDS011;2606;50.934;6.934;2023-03-04T06:01:09;9.17;;;3.63;;
5173;SDS011;2606;50.934;6.934;2023-03-04T06:03:35;7.17;;;2.90;;
5173;SDS011;2606;50.934;6.934;2023-03-04T06:06:01;7.73;;;3.23;;
5173;SDS011;2606;50.934;6.934;2023-03-04T06:08:27;14.90;;;3.30;;
5173;SDS011;2606;50.934;6.934;2023-03-04T06:10:54;14.47;;;3.60;;
5173;SDS011;2606;50.934;6.934;2023-03-04T06:13:21;8.30;;;2.87;;
5173;SDS011;2606;50.934;6.934;2023-03-04T06:15:47;12.80;;;4.30;;
5173;SDS011;2606;50.934;6.934;2023-03-04T06:18:21;14.03;;;3.57;;
5173;SDS011;2606;50.934;6.934;2023-03-04T06:20:47;12.13;;;2.57;;
5173;SDS011;2606;50.934;6.934;2023-03-04T06:23:13;9.47;;;2.30;;
5173;SDS011;2606;50.934;6.934;2023-03-04T06:25:39;9.70;;;2.90;;
5173;SDS011;2606;50.934;6.934;2023-03-04T06:28:04;15.13;;;3.67;;
5173;SDS011;2606;50.934;6.934;2023-03-04T06:30:30;6.77;;;2.30;;
5173;SDS011;2606;50.934;6.934;2023-03-04T06:32:55;6.20;;;2.33;;
5173;SDS011;2606;50.934;6.934;2023-03-04T06:35:21;10.43;;;2.60;;
5173;SDS011;2606;50.934;6.934;2023-03-04T06:37:47;11.70;;;2.03;;
5173;SDS011;2606;50.934;6.934;2023-03-04T06:40:13;9.33;;;2.60;;
5173;SDS011;2606;50.934;6.934;2023-03-04T06:42:39;3.90;;;2.13;;
5173;SDS011;2606;50.934;6.934;2023-03-04T06:45:05;5.67;;;3.10;;
5173;SDS011;2606;50.934;6.934;2023-03-04T06:47:31;10.33;;;2.87;;
5173;SDS011;2606;50.934;6.934;2023-03-04T06:49:57;15.70;;;3.23;;
5173;SDS011;2606;50.934;6.934;2023-03-04T06:52:22;6.20;;;2.57;;
5173;SDS011;2606;50.934;6.934;2023-03-04T06:54:48;13.50;;;3.27;;
5173;SDS011;2606;50.934;6.934;2023-03-04T06:57:14;12.23;;;2.83;;
5173;SDS011;2606;50.934;6.934;2023-03-04T06:59:40;6.87;;;2.80;;
5173;SDS011;2606;50.934;6.934;2023-03-04T07:02:05;6.93;;;2.83;;
5173;SDS011;2606;50.934;6.934;2023-03-04T07:04:34;10.57;;;3.03;;
5173;SDS011;2606;50.934;6.934;2023-03-04T07:06:59;3.67;;;2.00;;
5173;SDS011;2606;50.934;6.934;2023-03-04T07:09:25;6.57;;;2.57;;
5173;SDS011;2606;50.934;6.934;2023-03-04T07:11:50;10.13;;;2.30;;
5173;SDS011;2606;50.934;6.934;2023-03-04T07:14:16;7.93;;;3.37;;
5173;SDS011;2606;50.934;6.934;2023-03-04T07:16:42;6.23;;;2.33;;
5173;SDS011;2606;50.934;6.934;2023-03-04T07:19:07;7.90;;;1.83;;
5173;SDS011;2606;50.934;6.934;2023-03-04T07:21:33;3.97;;;2.30;;
5173;SDS011;2606;50.934;6.934;2023-03-04T07:23:58;15.07;;;2.20;;
5173;SDS011;2606;50.934;6.934;2023-03-04T07:26:24;6.07;;;2.57;;
5173;SDS011;2606;50.934;6.934;2023-03-04T07:28:49;8.60;;;2.30;;
5173;SDS011;2606;50.934;6.934;2023-03-04T07:31:21;10.10;;;2.20;;
5173;SDS011;2606;50.934;6.934;2023-03-04T07:33:49;20.20;;;2.77;;
5173;SDS011;2606;50.934;6.934;2023-03-04T07:36:15;3.77;;;2.03;;
5173;SDS011;2606;50.934;6.934;2023-03-04T07:38:44;6.67;;;2.77;;
5173;SDS011;2606;50.934;6.934;2023-03-04T07:41:13;5.47;;;2.33;;
5173;SDS011;2606;50.934;6.934;2023-03-04T07:43:39;13.33;;;2.80;;
5173;SDS011;2606;50.934;6.934;2023-03-04T07:46:05;8.43;;;2.27;;
5173;SDS011;2606;50.934;6.934;2023-03-04T07:48:31;13.07;;;3.10;;
5173;SDS011;2606;50.934;6.934;2023-03-04T07:53:32;13.63;;;2.43;;
5173;SDS011;2606;50.934;6.934;2023-03-04T07:55:58;4.27;;;1.97;;
5173;SDS011;2606;50.934;6.934;2023-03-04T07:58:23;7.97;;;2.83;;
5173;SDS011;2606;50.934;6.934;2023-03-04T08:00:49;12.33;;;2.77;;
5173;SDS011;2606;50.934;6.934;2023-03-04T08:03:15;15.07;;;2.73;;
5173;SDS011;2606;50.934;6.934;2023-03-04T08:05:41;8.50;;;2.40;;
5173;SDS011;2606;50.934;6.934;2023-03-04T08:08:06;6.93;;;2.03;;
5173;SDS011;2606;50.934;6.934;2023-03-04T08:10:32;8.00;;;2.70;;
5173;SDS011;2606;50.934;6.934;2023-03-04T08:12:58;6.80;;;2.20;;
5173;SDS011;2606;50.934;6.934;2023-03-04T08:15:23;7.13;;;2.00;;
5173;SDS011;2606;50.934;6.934;2023-03-04T08:17:51;10.60;;;2.67;;
5173;SDS011;2606;50.934;6.934;2023-03-04T08:20:17;14.10;;;2.13;;
5173;SDS011;2606;50.934;6.934;2023-03-04T08:22:42;4.40;;;1.50;;
5173;SDS011;2606;50.934;6.934;2023-03-04T08:25:08;10.77;;;2.27;;
5173;SDS011;2606;50.934;6.934;2023-03-04T08:27:33;7.33;;;2.23;;
5173;SDS011;2606;50.934;6.934;2023-03-04T08:30:01;8.77;;;2.20;;
5173;SDS011;2606;50.934;6.934;2023-03-04T08:32:27;11.50;;;2.43;;
5173;SDS011;2606;50.934;6.934;2023-03-04T08:34:53;7.93;;;2.83;;
5173;SDS011;2606;50.934;6.934;2023-03-04T08:37:20;7.67;;;2.10;;
5173;SDS011;2606;50.934;6.934;2023-03-04T08:39:45;10.80;;;2.93;;
5173;SDS011;2606;50.934;6.934;2023-03-04T08:42:11;5.30;;;1.90;;
5173;SDS011;2606;50.934;6.934;2023-03-04T08:44:36;8.23;;;2.20;;
5173;SDS011;2606;50.934;6.934;2023-03-04T08:47:02;5.63;;;2.40;;
5173;SDS011;2606;50.934;6.934;2023-03-04T08:49:27;5.83;;;1.63;;
5173;SDS011;2606;50.934;6.934;2023-03-04T08:51:53;10.10;;;2.20;;
5173;SDS011;2606;50.934;6.934;2023-03-04T08:54:18;15.30;;;2.10;;
5173;SDS011;2606;50.934;6.934;2023-03-04T08:56:44;4.37;;;1.70;;
5173;SDS011;2606;50.934;6.934;2023-03-04T08:59:10;5.10;;;1.80;;
5173;SDS011;2606;50.934;6.934;2023-03-04T09:01:36;4.90;;;1.97;;
5173;SDS011;2606;50.934;6.934;2023-03-04T09:04:01;5.93;;;1.87;;
5173;SDS011;2606;50.934;6.934;2023-03-04T09:06:27;3.57;;;1.67;;
5173;SDS011;2606;50.934;6.934;2023-03-04T09:08:53;7.03;;;1.70;;
5173;SDS011;2606;50.934;6.934;2023-03-04T09:11:18;10.77;;;1.90;;
5173;SDS011;2606;50.934;6.934;2023-03-04T09:13:44;6.73;;;1.53;;
5173;SDS011;2606;50.934;6.934;2023-03-04T09:16:10;4.03;;;2.07;;
5173;SDS011;2606;50.934;6.934;2023-03-04T09:18:37;5.27;;;1.70;;
5173;SDS011;2606;50.934;6.934;2023-03-04T09:21:04;11.50;;;2.10;;
5173;SDS011;2606;50.934;6.934;2023-03-04T09:23:37;3.60;;;1.73;;
5173;SDS011;2606;50.934;6.934;2023-03-04T09:26:13;3.10;;;1.53;;
5173;SDS011;2606;50.934;6.934;2023-03-04T09:28:48;3.87;;;1.20;;
5173;SDS011;2606;50.934;6.934;2023-03-04T09:31:18;5.90;;;2.20;;
5173;SDS011;2606;50.934;6.934;2023-03-04T09:33:44;2.80;;;1.53;;
5173;SDS011;2606;50.934;6.934;2023-03-04T09:36:11;4.53;;;1.50;;
5173;SDS011;2606;50.934;6.934;2023-03-04T09:38:38;10.67;;;2.37;;
5173;SDS011;2606;50.934;6.934;2023-03-04T09:41:08;5.57;;;2.20;;
5173;SDS011;2606;50.934;6.934;2023-03-04T09:43:55;9.03;;;1.90;;
5173;SDS011;2606;50.934;6.934;2023-03-04T09:46:25;8.60;;;1.50;;
5173;SDS011;2606;50.934;6.934;2023-03-04T09:48:56;8.67;;;1.83;;
5173;SDS011;2606;50.934;6.934;2023-03-04T09:54:15;5.83;;;1.60;;
5173;SDS011;2606;50.934;6.934;2023-03-04T09:56:54;8.50;;;1.60;;
5173;SDS011;2606;50.934;6.934;2023-03-04T09:59:45;7.83;;;2.50;;
5173;SDS011;2606;50.934;6.934;2023-03-04T10:02:19;9.67;;;2.00;;
5173;SDS011;2606;50.934;6.934;2023-03-04T10:04:58;4.57;;;1.27;;
5173;SDS011;2606;50.934;6.934;2023-03-04T10:07:28;6.60;;;3.93;;
5173;SDS011;2606;50.934;6.934;2023-03-04T10:10:03;7.03;;;2.03;;
5173;SDS011;2606;50.934;6.934;2023-03-04T10:12:35;4.20;;;1.80;;
5173;SDS011;2606;50.934;6.934;2023-03-04T10:15:05;6.73;;;2.33;;
5173;SDS011;2606;50.934;6.934;2023-03-04T10:17:42;2.83;;;1.87;;
5173;SDS011;2606;50.934;6.934;2023-03-04T10:22:43;4.37;;;1.67;;
5173;SDS011;2606;50.934;6.934;2023-03-04T10:31:01;3.93;;;1.73;;
5173;SDS011;2606;50.934;6.934;2023-03-04T10:33:08;4.43;;;1.43;;
5173;SDS011;2606;50.934;6.934;2023-03-04T10:35:38;5.80;;;2.07;;
5173;SDS011;2606;50.934;6.934;2023-03-04T10:38:07;11.37;;;2.73;;
5173;SDS011;2606;50.934;6.934;2023-03-04T10:40:37;3.47;;;1.70;;
5173;SDS011;2606;50.934;6.934;2023-03-04T10:43:04;4.60;;;1.50;;
5173;SDS011;2606;50.934;6.934;2023-03-04T10:45:36;5.63;;;2.00;;
5173;SDS011;2606;50.934;6.934;2023-03-04T10:48:04;3.37;;;1.53;;
5173;SDS011;2606;50.934;6.934;2023-03-04T10:50:29;4.33;;;1.67;;
5173;SDS011;2606;50.934;6.934;2023-03-04T10:52:56;2.40;;;1.60;;
5173;SDS011;2606;50.934;6.934;2023-03-04T10:55:23;5.00;;;1.90;;
5173;SDS011;2606;50.934;6.934;2023-03-04T10:58:02;2.30;;;2.10;;
5173;SDS011;2606;50.934;6.934;2023-03-04T11:00:30;3.00;;;1.43;;
5173;SDS011;2606;50.934;6.934;2023-03-04T11:05:49;3.03;;;1.47;;
5173;SDS011;2606;50.934;6.934;2023-03-04T11:08:16;4.63;;;1.83;;
5173;SDS011;2606;50.934;6.934;2023-03-04T11:10:44;4.30;;;1.60;;
5173;SDS011;2606;50.934;6.934;2023-03-04T11:18:33;3.13;;;1.90;;
5173;SDS011;2606;50.934;6.934;2023-03-04T11:21:03;3.00;;;1.27;;
5173;SDS011;2606;50.934;6.934;2023-03-04T11:23:35;6.80;;;2.40;;
5173;SDS011;2606;50.934;6.934;2023-03-04T11:26:09;5.80;;;2.10;;
5173;SDS011;2606;50.934;6.934;2023-03-04T11:28:48;5.33;;;1.60;;
5173;SDS011;2606;50.934;6.934;2023-03-04T11:31:29;8.73;;;2.33;;
5173;SDS011;2606;50.934;6.934;2023-03-04T11:34:00;4.83;;;2.40;;
5173;SDS011;2606;50.934;6.934;2023-03-04T11:36:39;4.20;;;2.20;;
5173;SDS011;2606;50.934;6.934;2023-03-04T11:39:22;2.53;;;1.80;;
5173;SDS011;2606;50.934;6.934;2023-03-04T11:44:57;4.53;;;1.30;;
5173;SDS011;2606;50.934;6.934;2023-03-04T11:47:38;4.37;;;1.60;;
5173;SDS011;2606;50.934;6.934;2023-03-04T11:57:56;5.80;;;2.20;;
5173;SDS011;2606;50.934;6.934;2023-03-04T12:24:21;0.90;;;0.80;;
5173;SDS011;2606;50.934;6.934;2023-03-04T12:27:09;9.77;;;1.47;;
5173;SDS011;2606;50.934;6.934;2023-03-04T12:33:00;2.30;;;1.70;;
5173;SDS011;2606;50.934;6.934;2023-03-04T12:35:50;2.40;;;1.30;;
5173;SDS011;2606;50.934;6.934;2023-03-04T12:38:33;3.33;;;1.90;;
5173;SDS011;2606;50.934;6.934;2023-03-04T12:49:31;6.50;;;1.60;;
5173;SDS011;2606;50.934;6.934;2023-03-04T12:52:21;6.43;;;1.50;;
5173;SDS011;2606;50.934;6.934;2023-03-04T12:55:01;10.23;;;1.37;;
5173;SDS011;2606;50.934;6.934;2023-03-04T12:57:32;15.27;;;8.87;;
5173;SDS011;2606;50.934;6.934;2023-03-04T13:00:16;5.13;;;2.93;;
5173;SDS011;2606;50.934;6.934;2023-03-04T13:08:26;5.17;;;1.23;;
5173;SDS011;2606;50.934;6.934;2023-03-04T13:11:02;6.70;;;1.27;;
5173;SDS011;2606;50.934;6.934;2023-03-04T13:16:47;2.60;;;1.00;;
5173;SDS011;2606;50.934;6.934;2023-03-04T13:28:22;18.10;;;4.87;;
5173;SDS011;2606;50.934;6.934;2023-03-04T13:31:10;4.73;;;1.70;;
5173;SDS011;2606;50.934;6.934;2023-03-04T13:33:39;2.47;;;1.07;;
5173;SDS011;2606;50.934;6.934;2023-03-04T13:36:28;1.67;;;0.90;;
5173;SDS011;2606;50.934;6.934;2023-03-04T13:39:25;1.90;;;1.10;;
5173;SDS011;2606;50.934;6.934;2023-03-04T13:41:53;2.40;;;1.17;;
5173;SDS011;2606;50.934;6.934;2023-03-04T13:47:08;2.60;;;0.87;;
5173;SDS011;2606;50.934;6.934;2023-03-04T13:49:39;4.00;;;1.37;;
5173;SDS011;2606;50.934;6.934;2023-03-04T13:57:54;2.87;;;1.13;;
5173;SDS011;2606;50.934;6.934;2023-03-04T14:00:19;2.30;;;1.20;;
5173;SDS011;2606;50.934;6.934;2023-03-04T14:02:45;2.40;;;1.27;;
5173;SDS011;2606;50.934;6.934;2023-03-04T14:05:11;9.10;;;5.00;;
5173;SDS011;2606;50.934;6.934;2023-03-04T14:07:36;6.10;;;2.10;;
5173;SDS011;2606;50.934;6.934;2023-03-04T14:10:17;1.97;;;1.47;;
5173;SDS011;2606;50.934;6.934;2023-03-04T14:12:48;1.67;;;0.97;;
5173;SDS011;2606;50.934;6.934;2023-03-04T14:15:29;3.70;;;1.47;;
5173;SDS011;2606;50.934;6.934;2023-03-04T14:17:59;2.77;;;1.30;;
5173;SDS011;2606;50.934;6.934;2023-03-04T14:22:54;3.27;;;1.80;;
5173;SDS011;2606;50.934;6.934;2023-03-04T14:25:22;2.93;;;1.83;;
5173;SDS011;2606;50.934;6.934;2023-03-04T14:27:49;7.70;;;2.20;;
5173;SDS011;2606;50.934;6.934;2023-03-04T14:30:26;5.03;;;2.10;;
5173;SDS011;2606;50.934;6.934;2023-03-04T14:32:56;3.77;;;1.67;;
5173;SDS011;2606;50.934;6.934;2023-03-04T14:35:24;3.00;;;2.10;;
5173;SDS011;2606;50.934;6.934;2023-03-04T14:38:12;6.93;;;3.17;;
5173;SDS011;2606;50.934;6.934;2023-03-04T14:40:41;1.97;;;1.57;;
5173;SDS011;2606;50.934;6.934;2023-03-04T14:43:13;4.57;;;1.83;;
5173;SDS011;2606;50.934;6.934;2023-03-04T14:45:42;4.30;;;1.80;;
5173;SDS011;2606;50.934;6.934;2023-03-04T14:48:15;4.10;;;1.80;;
5173;SDS011;2606;50.934;6.934;2023-03-04T14:50:47;6.17;;;1.80;;
5173;SDS011;2606;50.934;6.934;2023-03-04T14:53:15;5.10;;;1.50;;
5173;SDS011;2606;50.934;6.934;2023-03-04T14:56:01;2.60;;;1.50;;
5173;SDS011;2606;50.934;6.934;2023-03-04T14:58:29;12.70;;;1.83;;
5173;SDS011;2606;50.934;6.934;2023-03-04T15:01:05;2.47;;;1.70;;
5173;SDS011;2606;50.934;6.934;2023-03-04T15:03:38;1.60;;;1.20;;
5173;SDS011;2606;50.934;6.934;2023-03-04T15:06:17;2.33;;;1.67;;
5173;SDS011;2606;50.934;6.934;2023-03-04T15:08:44;8.60;;;1.77;;
5173;SDS011;2606;50.934;6.934;2023-03-04T15:11:24;3.53;;;1.53;;
5173;SDS011;2606;50.934;6.934;2023-03-04T15:13:53;3.43;;;1.40;;
5173;SDS011;2606;50.934;6.934;2023-03-04T15:16:21;2.43;;;1.60;;
5173;SDS011;2606;50.934;6.934;2023-03-04T15:18:53;2.03;;;1.73;;
5173;SDS011;2606;50.934;6.934;2023-03-04T15:23:44;4.23;;;1.97;;
5173;SDS011;2606;50.934;6.934;2023-03-04T15:26:10;3.27;;;1.90;;
5173;SDS011;2606;50.934;6.934;2023-03-04T15:28:37;5.57;;;2.57;;
5173;SDS011;2606;50.934;6.934;2023-03-04T15:31:12;5.40;;;1.80;;
5173;SDS011;2606;50.934;6.934;2023-03-04T15:33:43;8.07;;;2.00;;
5173;SDS011;2606;50.934;6.934;2023-03-04T15:36:11;2.73;;;2.10;;
5173;SDS011;2606;50.934;6.934;2023-03-04T15:38:40;4.47;;;2.10;;
5173;SDS011;2606;50.934;6.934;2023-03-04T15:41:08;6.13;;;2.57;;
5173;SDS011;2606;50.934;6.934;2023-03-04T15:43:36;3.10;;;2.07;;
5173;SDS011;2606;50.934;6.934;2023-03-04T15:46:01;4.23;;;2.37;;
5173;SDS011;2606;50.934;6.934;2023-03-04T15:48:27;6.43;;;2.63;;
5173;SDS011;2606;50.934;6.934;2023-03-04T15:50:54;5.97;;;3.00;;
5173;SDS011;2606;50.934;6.934;2023-03-04T15:56:04;4.70;;;2.80;;
5173;SDS011;2606;50.934;6.934;2023-03-04T15:58:35;4.13;;;2.00;;
5173;SDS011;2606;50.934;6.934;2023-03-04T16:01:03;3.73;;;2.40;;
5173;SDS011;2606;50.934;6.934;2023-03-04T16:03:29;5.03;;;2.33;;
5173;SDS011;2606;50.934;6.934;2023-03-04T16:05:54;6.23;;;2.37;;
5173;SDS011;2606;50.934;6.934;2023-03-04T16:08:21;3.00;;;2.30;;
5173;SDS011;2606;50.934;6.934;2023-03-04T16:10:49;3.37;;;1.80;;
5173;SDS011;2606;50.934;6.934;2023-03-04T16:13:19;1.90;;;1.57;;
5173;SDS011;2606;50.934;6.934;2023-03-04T16:15:46;6.13;;;2.13;;
5173;SDS011;2606;50.934;6.934;2023-03-04T16:18:14;4.40;;;2.73;;
5173;SDS011;2606;50.934;6.934;2023-03-04T16:20:41;8.80;;;4.27;;
5173;SDS011;2606;50.934;6.934;2023-03-04T16:23:13;9.43;;;4.80;;
5173;SDS011;2606;50.934;6.934;2023-03-04T16:25:45;12.87;;;4.80;;
5173;SDS011;2606;50.934;6.934;2023-03-04T16:28:12;14.03;;;4.87;;
5173;SDS011;2606;50.934;6.934;2023-03-04T16:30:38;10.73;;;4.37;;
5173;SDS011;2606;50.934;6.934;2023-03-04T16:33:05;7.57;;;3.50;;
5173;SDS011;2606;50.934;6.934;2023-03-04T16:35:31;7.80;;;3.60;;
5173;SDS011;2606;50.934;6.934;2023-03-04T16:37:58;8.53;;;3.47;;
5173;SDS011;2606;50.934;6.934;2023-03-04T16:40:28;6.33;;;3.63;;
5173;SDS011;2606;50.934;6.934;2023-03-04T16:42:55;10.90;;;3.77;;
5173;SDS011;2606;50.934;6.934;2023-03-04T16:45:22;11.33;;;3.90;;
5173;SDS011;2606;50.934;6.934;2023-03-04T16:47:49;4.40;;;2.87;;
5173;SDS011;2606;50.934;6.934;2023-03-04T16:50:17;55.20;;;21.00;;
5173;SDS011;2606;50.934;6.934;2023-03-04T16:52:51;13.37;;;4.80;;
5173;SDS011;2606;50.934;6.934;2023-03-04T16:55:27;8.73;;;3.40;;
5173;SDS011;2606;50.934;6.934;2023-03-04T16:57:54;8.60;;;3.33;;
5173;SDS011;2606;50.934;6.934;2023-03-04T17:00:22;3.17;;;2.40;;
5173;SDS011;2606;50.934;6.934;2023-03-04T17:02:56;3.00;;;2.30;;